Time;durP1;ratioP1;P1;durP2;ratioP2;P2;SDS_P1;SDS_P2;PMS_P1;PMS_P2;Temp;Humidity;BMP_temperature;BMP_pressure;BME280_temperature;BME280_humidity;BME280_pressure;Samples;Min_cycle;Max_cycle;Signal;HPM_P1;HPM_P2
2021/03/03 00:00:47;;;;;;;23.60;16.08;;;5.00;99.90;;;;;;5024427;28;20033;-70
2021/03/03 00:03:12;;;;;;;26.70;16.25;;;5.00;99.90;;;;;;5036244;28;20025;-72
2021/03/03 00:05:39;;;;;;;30.27;17.83;;;4.90;99.90;;;;;;5019357;28;20026;-70
2021/03/03 00:08:05;;;;;;;26.50;17.02;;;4.90;99.90;;;;;;5019341;28;20037;-71
2021/03/03 00:10:31;;;;;;;28.02;16.27;;;4.90;99.90;;;;;;5018226;28;20021;-70
2021/03/03 00:12:56;;;;;;;25.02;16.45;;;4.90;99.90;;;;;;5015770;28;20053;-71
2021/03/03 00:15:22;;;;;;;24.45;16.02;;;5.00;99.90;;;;;;5015329;28;20046;-71
2021/03/03 00:17:47;;;;;;;30.20;18.00;;;4.90;99.90;;;;;;5015801;28;20088;-70
2021/03/03 00:20:14;;;;;;;23.38;16.08;;;4.90;99.90;;;;;;5017630;28;20048;-71
2021/03/03 00:22:39;;;;;;;30.42;17.95;;;4.90;99.90;;;;;;5017329;28;20026;-70
2021/03/03 00:25:05;;;;;;;25.27;17.25;;;4.90;99.90;;;;;;5017817;28;20060;-70
2021/03/03 00:27:31;;;;;;;27.10;16.90;;;4.90;99.90;;;;;;5018467;28;20143;-69
2021/03/03 00:29:57;;;;;;;29.20;16.73;;;4.90;99.90;;;;;;5015900;28;20030;-70
2021/03/03 00:32:23;;;;;;;21.52;15.00;;;4.90;99.90;;;;;;5015150;28;20022;-71
2021/03/03 00:34:48;;;;;;;23.17;16.08;;;4.80;99.90;;;;;;5015176;28;20034;-70
2021/03/03 00:37:14;;;;;;;26.23;16.67;;;4.80;99.90;;;;;;5014303;28;20080;-70
2021/03/03 00:39:40;;;;;;;20.77;15.10;;;4.80;99.90;;;;;;5021843;28;20046;-72
2021/03/03 00:42:05;;;;;;;27.67;15.98;;;4.80;99.90;;;;;;5028138;28;20030;-70
2021/03/03 00:44:31;;;;;;;30.52;15.63;;;4.80;99.90;;;;;;5027682;28;20030;-70
2021/03/03 00:46:57;;;;;;;30.90;16.33;;;4.80;99.90;;;;;;5025808;28;20034;-70
2021/03/03 00:49:22;;;;;;;26.85;17.05;;;4.70;99.90;;;;;;5017722;28;20025;-72
2021/03/03 00:51:48;;;;;;;29.25;17.63;;;4.60;99.90;;;;;;5023705;28;20060;-70
2021/03/03 00:54:13;;;;;;;28.10;16.33;;;4.60;99.90;;;;;;5026159;28;20026;-69
2021/03/03 00:56:39;;;;;;;26.00;17.00;;;4.60;99.90;;;;;;5016148;28;20068;-70
2021/03/03 00:59:05;;;;;;;27.30;17.08;;;4.60;99.90;;;;;;5016276;28;20025;-69
2021/03/03 01:01:30;;;;;;;26.95;17.45;;;4.60;99.90;;;;;;5022045;28;20045;-71
2021/03/03 01:03:56;;;;;;;22.73;15.90;;;4.60;99.90;;;;;;5028090;28;20026;-71
2021/03/03 01:06:21;;;;;;;27.75;17.70;;;4.60;99.90;;;;;;5029635;28;20036;-71
2021/03/03 01:08:47;;;;;;;27.38;17.50;;;4.60;99.90;;;;;;5028813;28;20092;-69
2021/03/03 01:11:13;;;;;;;23.80;16.25;;;4.50;99.90;;;;;;5023702;28;20029;-70
2021/03/03 01:13:38;;;;;;;26.75;17.65;;;4.50;99.90;;;;;;5017859;28;20041;-69
2021/03/03 01:16:04;;;;;;;24.90;16.13;;;4.50;99.90;;;;;;5016374;28;20030;-70
2021/03/03 01:18:30;;;;;;;28.40;15.98;;;4.60;99.90;;;;;;5015572;28;20026;-71
2021/03/03 01:20:56;;;;;;;24.23;16.00;;;4.50;99.90;;;;;;5015793;28;20080;-71
2021/03/03 01:23:22;;;;;;;25.40;17.67;;;4.60;99.90;;;;;;5014263;28;20026;-69
2021/03/03 01:25:47;;;;;;;28.95;17.15;;;4.50;99.90;;;;;;5016006;28;20044;-69
2021/03/03 01:28:13;;;;;;;30.98;17.40;;;4.50;99.90;;;;;;5015204;28;20101;-71
2021/03/03 01:30:39;;;;;;;31.73;17.75;;;4.50;99.90;;;;;;5015141;28;20034;-71
2021/03/03 01:33:05;;;;;;;28.17;16.80;;;4.40;99.90;;;;;;5014416;28;20070;-71
2021/03/03 01:35:31;;;;;;;27.48;16.33;;;4.50;99.90;;;;;;5014176;28;20100;-71
2021/03/03 01:37:56;;;;;;;27.45;17.13;;;4.50;99.90;;;;;;5014704;28;20396;-71
2021/03/03 01:40:22;;;;;;;24.67;16.92;;;4.50;99.90;;;;;;5014588;28;20022;-71
2021/03/03 01:42:47;;;;;;;23.90;16.02;;;4.40;99.90;;;;;;5014087;28;20489;-71
2021/03/03 01:45:14;;;;;;;23.52;15.95;;;4.40;99.90;;;;;;5014293;28;20033;-72
2021/03/03 01:47:40;;;;;;;33.30;17.45;;;4.50;99.90;;;;;;5012919;28;20082;-70
2021/03/03 01:50:07;;;;;;;23.27;16.52;;;4.50;99.90;;;;;;5014304;28;20022;-71
2021/03/03 01:52:36;;;;;;;30.45;16.58;;;4.50;99.90;;;;;;5017295;28;20033;-70
2021/03/03 01:55:02;;;;;;;26.65;18.08;;;4.50;99.90;;;;;;5013969;28;20072;-70
2021/03/03 01:57:29;;;;;;;29.63;16.33;;;4.50;99.90;;;;;;5014579;28;20029;-70
2021/03/03 01:59:54;;;;;;;25.67;16.70;;;4.50;99.90;;;;;;5014590;28;20053;-70
2021/03/03 02:02:23;;;;;;;29.35;16.83;;;4.40;99.90;;;;;;5014359;28;20486;-70
2021/03/03 02:04:54;;;;;;;27.05;15.90;;;4.40;99.90;;;;;;5014106;28;20026;-69
2021/03/03 02:07:30;;;;;;;25.65;15.68;;;4.40;99.90;;;;;;5013862;28;20026;-70
2021/03/03 02:10:07;;;;;;;24.52;15.10;;;4.40;99.90;;;;;;5013795;28;20030;-70
2021/03/03 02:12:35;;;;;;;25.85;17.08;;;4.40;99.90;;;;;;5013540;28;20060;-70
2021/03/03 02:15:04;;;;;;;27.63;16.23;;;4.40;99.90;;;;;;5013202;28;20022;-70
2021/03/03 02:17:31;;;;;;;23.13;15.05;;;4.40;99.90;;;;;;5013376;28;20029;-70
2021/03/03 02:20:01;;;;;;;23.90;16.38;;;4.40;99.90;;;;;;5013360;28;20022;-71
2021/03/03 02:22:51;;;;;;;25.48;15.23;;;4.30;99.90;;;;;;5012129;28;20108;-71
2021/03/03 02:25:35;;;;;;;26.65;16.25;;;4.30;99.90;;;;;;5013129;28;20108;-71
2021/03/03 02:28:05;;;;;;;30.25;15.30;;;4.30;99.90;;;;;;5013472;28;20448;-69
2021/03/03 02:30:32;;;;;;;29.30;15.10;;;4.20;99.90;;;;;;5019604;28;20026;-69
2021/03/03 02:32:59;;;;;;;28.50;16.17;;;4.30;99.90;;;;;;5030164;28;20030;-70
2021/03/03 02:35:27;;;;;;;23.75;15.27;;;4.30;99.90;;;;;;5015545;28;20355;-71
2021/03/03 02:37:55;;;;;;;28.25;16.63;;;4.30;99.90;;;;;;5019948;28;20021;-71
2021/03/03 02:40:21;;;;;;;22.95;15.85;;;4.30;99.90;;;;;;5020941;28;20048;-70
2021/03/03 02:42:47;;;;;;;25.58;15.85;;;4.30;99.90;;;;;;5025151;28;20109;-70
2021/03/03 02:45:19;;;;;;;26.45;15.40;;;4.40;99.90;;;;;;5019310;28;20073;-72
2021/03/03 02:47:46;;;;;;;26.60;15.23;;;4.30;99.90;;;;;;5012987;28;20026;-71
2021/03/03 02:50:13;;;;;;;26.77;15.13;;;4.30;99.90;;;;;;5013049;28;20390;-71
2021/03/03 02:52:58;;;;;;;26.85;15.88;;;4.40;99.90;;;;;;5013167;28;20030;-70
2021/03/03 02:55:28;;;;;;;26.83;15.25;;;4.30;99.90;;;;;;5012951;28;20096;-70
2021/03/03 02:57:55;;;;;;;22.13;15.77;;;4.30;99.90;;;;;;5012101;28;20018;-70
2021/03/03 03:00:25;;;;;;;25.20;15.05;;;4.30;99.90;;;;;;5013235;28;20311;-71
2021/03/03 03:02:59;;;;;;;22.27;15.05;;;4.30;99.90;;;;;;5013178;28;20081;-70
2021/03/03 03:05:28;;;;;;;25.70;16.05;;;4.30;99.90;;;;;;5013139;28;20045;-70
2021/03/03 03:07:57;;;;;;;20.45;14.07;;;4.30;99.90;;;;;;5011916;28;20030;-71
2021/03/03 03:10:23;;;;;;;28.20;15.13;;;4.20;99.90;;;;;;5011957;28;20034;-70
2021/03/03 03:12:52;;;;;;;22.83;14.70;;;4.30;99.90;;;;;;5012717;28;20037;-70
2021/03/03 03:15:20;;;;;;;22.13;14.60;;;4.20;99.90;;;;;;5012523;28;20034;-70
2021/03/03 03:17:50;;;;;;;28.08;15.48;;;4.30;99.90;;;;;;5012802;28;20087;-70
2021/03/03 03:20:17;;;;;;;28.70;14.88;;;4.30;99.90;;;;;;5013290;28;20498;-69
2021/03/03 03:22:44;;;;;;;21.83;13.68;;;4.20;99.90;;;;;;5015482;28;20022;-69
2021/03/03 03:25:11;;;;;;;22.88;14.65;;;4.20;99.90;;;;;;5014983;28;20103;-70
2021/03/03 03:27:37;;;;;;;26.75;15.63;;;4.20;99.90;;;;;;5013819;28;20054;-69
2021/03/03 03:30:04;;;;;;;23.10;15.52;;;4.20;99.90;;;;;;5013291;28;20053;-69
2021/03/03 03:32:31;;;;;;;23.52;14.20;;;4.10;99.90;;;;;;5012906;28;20045;-70
2021/03/03 03:34:56;;;;;;;26.58;16.15;;;4.10;99.90;;;;;;5011321;28;20029;-70
2021/03/03 03:37:24;;;;;;;22.92;15.93;;;4.10;99.90;;;;;;5011437;28;20018;-70
2021/03/03 03:39:50;;;;;;;29.35;16.27;;;4.20;99.90;;;;;;5011788;28;20101;-70
2021/03/03 03:42:17;;;;;;;25.40;15.95;;;4.20;99.90;;;;;;5016613;28;20025;-71
2021/03/03 03:44:43;;;;;;;23.95;16.15;;;4.10;99.90;;;;;;5014877;28;20022;-70
2021/03/03 03:47:11;;;;;;;23.45;14.77;;;4.10;99.90;;;;;;5016566;28;20045;-70
2021/03/03 03:49:37;;;;;;;25.90;16.90;;;4.10;99.90;;;;;;5016108;28;20030;-70
2021/03/03 03:52:03;;;;;;;29.30;17.33;;;4.00;99.90;;;;;;5016332;28;20380;-70
2021/03/03 03:54:28;;;;;;;23.50;14.88;;;4.00;99.90;;;;;;5016274;28;20503;-72
2021/03/03 03:56:54;;;;;;;28.02;16.02;;;4.00;99.90;;;;;;5016360;28;20495;-71
2021/03/03 03:59:20;;;;;;;27.92;14.32;;;4.00;99.90;;;;;;5015781;28;20048;-70
2021/03/03 04:01:45;;;;;;;26.92;16.45;;;4.10;99.90;;;;;;5015606;28;20048;-70
2021/03/03 04:04:11;;;;;;;23.67;15.85;;;4.10;99.90;;;;;;5015785;28;20026;-70
2021/03/03 04:06:36;;;;;;;26.77;16.33;;;4.10;99.90;;;;;;5015261;28;20484;-70
2021/03/03 04:09:02;;;;;;;26.13;16.45;;;4.00;99.90;;;;;;5015724;28;20068;-70
2021/03/03 04:11:28;;;;;;;25.13;16.52;;;4.10;99.90;;;;;;5016497;28;20026;-70
2021/03/03 04:13:53;;;;;;;26.63;18.38;;;4.00;99.90;;;;;;5014347;28;20094;-70
2021/03/03 04:16:19;;;;;;;30.20;18.80;;;4.00;99.90;;;;;;5015196;28;20060;-70
2021/03/03 04:18:44;;;;;;;30.20;18.30;;;4.00;99.90;;;;;;5015357;28;20030;-70
2021/03/03 04:21:10;;;;;;;27.60;19.02;;;3.90;99.90;;;;;;5015301;28;20101;-71
2021/03/03 04:23:35;;;;;;;35.22;20.80;;;3.90;99.90;;;;;;5015904;28;20026;-71
2021/03/03 04:26:01;;;;;;;43.83;20.05;;;3.90;99.90;;;;;;5022100;23;20112;-70
2021/03/03 04:28:27;;;;;;;30.85;16.65;;;3.90;99.90;;;;;;5013946;28;20022;-70
2021/03/03 04:30:52;;;;;;;31.15;21.85;;;3.90;99.90;;;;;;5015100;28;20530;-70
2021/03/03 04:33:18;;;;;;;30.38;18.70;;;3.90;99.90;;;;;;5015027;28;20049;-70
2021/03/03 04:35:43;;;;;;;34.17;21.35;;;3.90;99.90;;;;;;5030036;28;20030;-69
2021/03/03 04:38:09;;;;;;;34.25;18.70;;;3.90;99.90;;;;;;5032039;28;20022;-69
2021/03/03 04:40:35;;;;;;;27.05;18.08;;;3.90;99.90;;;;;;5029483;28;20018;-69
2021/03/03 04:43:01;;;;;;;32.40;19.50;;;3.90;99.90;;;;;;5029541;28;20056;-70
2021/03/03 04:45:26;;;;;;;25.88;17.98;;;4.00;99.90;;;;;;5029076;28;20028;-70
2021/03/03 04:47:52;;;;;;;25.17;15.13;;;3.90;99.90;;;;;;5024729;28;20391;-70
2021/03/03 04:50:18;;;;;;;30.88;16.55;;;4.00;99.90;;;;;;5016114;28;20025;-70
2021/03/03 04:52:43;;;;;;;23.48;16.92;;;3.90;99.90;;;;;;5014825;28;20503;-70
2021/03/03 04:55:09;;;;;;;31.83;16.75;;;4.00;99.90;;;;;;5015423;28;20034;-70
2021/03/03 04:57:35;;;;;;;28.05;18.55;;;3.90;99.90;;;;;;5015012;28;20079;-70
2021/03/03 05:00:01;;;;;;;31.60;16.45;;;3.90;99.90;;;;;;5021997;28;20025;-70
2021/03/03 05:02:26;;;;;;;26.55;17.77;;;3.90;99.90;;;;;;5033391;28;20030;-70
2021/03/03 05:04:52;;;;;;;21.50;15.40;;;3.90;99.90;;;;;;5016385;28;20026;-70
2021/03/03 05:07:17;;;;;;;24.83;16.55;;;4.00;99.90;;;;;;5015008;28;20388;-70
2021/03/03 05:09:43;;;;;;;28.00;17.05;;;3.90;99.90;;;;;;5014939;28;20065;-70
2021/03/03 05:12:09;;;;;;;29.98;14.80;;;3.90;99.90;;;;;;5014273;28;20070;-70
2021/03/03 05:14:35;;;;;;;22.83;15.35;;;3.80;99.90;;;;;;5014151;28;20041;-70
2021/03/03 05:17:01;;;;;;;27.83;15.63;;;3.80;99.90;;;;;;5013216;28;20030;-70
2021/03/03 05:19:27;;;;;;;24.77;16.88;;;3.90;99.90;;;;;;5014015;28;20014;-70
2021/03/03 05:21:52;;;;;;;27.50;15.80;;;3.80;99.90;;;;;;5014307;28;20030;-70
2021/03/03 05:24:18;;;;;;;26.48;16.25;;;3.80;99.90;;;;;;5014881;28;20018;-69
2021/03/03 05:26:44;;;;;;;23.42;15.52;;;3.90;99.90;;;;;;5013985;28;20026;-72
2021/03/03 05:29:09;;;;;;;21.98;15.57;;;3.90;99.90;;;;;;5014488;28;20076;-70
2021/03/03 05:31:35;;;;;;;31.98;16.90;;;3.80;99.90;;;;;;5014572;28;20025;-70
2021/03/03 05:34:01;;;;;;;26.42;16.42;;;3.80;99.90;;;;;;5014274;28;20030;-69
2021/03/03 05:36:27;;;;;;;23.33;16.17;;;3.80;99.90;;;;;;5014178;28;20526;-70
2021/03/03 05:38:52;;;;;;;29.05;16.90;;;3.80;99.90;;;;;;5014301;28;20034;-70
2021/03/03 05:41:22;;;;;;;23.83;16.13;;;3.80;99.90;;;;;;5019430;28;20021;-70
2021/03/03 05:43:48;;;;;;;28.47;17.00;;;3.90;99.90;;;;;;5029725;28;20018;-70
2021/03/03 05:46:15;;;;;;;27.55;15.55;;;3.90;99.90;;;;;;5016711;28;20030;-69
2021/03/03 05:48:45;;;;;;;26.90;16.30;;;3.90;99.90;;;;;;5014392;28;20030;-71
2021/03/03 05:51:11;;;;;;;30.85;19.20;;;3.90;99.90;;;;;;5012569;28;20069;-72
2021/03/03 05:53:37;;;;;;;29.20;16.63;;;3.90;99.90;;;;;;5016065;28;20065;-71
2021/03/03 05:56:05;;;;;;;30.52;19.30;;;3.90;99.90;;;;;;5024898;28;20060;-71
2021/03/03 05:58:33;;;;;;;29.20;18.67;;;3.90;99.90;;;;;;5024942;28;20018;-71
2021/03/03 06:01:01;;;;;;;33.13;18.45;;;3.90;99.90;;;;;;5026645;28;20022;-70
2021/03/03 06:03:27;;;;;;;38.03;17.58;;;3.90;99.90;;;;;;5025114;28;20385;-71
2021/03/03 06:05:53;;;;;;;32.42;16.95;;;3.90;99.90;;;;;;5023313;28;20034;-71
2021/03/03 06:08:22;;;;;;;32.05;17.70;;;3.90;99.90;;;;;;5016939;28;20486;-71
2021/03/03 06:10:48;;;;;;;32.08;17.55;;;3.90;99.90;;;;;;5015866;28;20478;-71
2021/03/03 06:13:15;;;;;;;36.30;16.08;;;3.90;99.90;;;;;;5015037;28;20045;-72
2021/03/03 06:15:41;;;;;;;31.42;17.38;;;3.90;99.90;;;;;;5014339;28;20113;-70
2021/03/03 06:18:08;;;;;;;27.65;16.35;;;3.90;99.90;;;;;;5014682;28;20017;-70
2021/03/03 06:20:40;;;;;;;29.40;17.60;;;4.00;99.90;;;;;;5015546;28;20026;-71
2021/03/03 06:23:20;;;;;;;34.92;18.10;;;4.00;99.90;;;;;;5015227;28;20029;-70
2021/03/03 06:25:56;;;;;;;33.05;17.67;;;4.00;99.90;;;;;;5017629;28;20113;-71
2021/03/03 06:28:41;;;;;;;32.03;17.90;;;4.10;99.90;;;;;;5014597;28;20033;-71
2021/03/03 06:31:28;;;;;;;25.85;15.98;;;4.10;99.90;;;;;;5015826;28;20080;-71
2021/03/03 06:34:19;;;;;;;32.90;17.92;;;4.10;99.90;;;;;;5015332;28;20101;-71
2021/03/03 06:36:45;;;;;;;;;;;4.20;99.90;;;;;;5015381;28;20029;-70
2021/03/03 06:39:32;;;;;;;31.02;16.48;;;4.20;99.90;;;;;;5015227;28;19913;-71
2021/03/03 06:42:09;;;;;;;36.13;16.63;;;4.30;99.90;;;;;;5014115;28;20056;-71
2021/03/03 06:44:45;;;;;;;30.60;16.15;;;4.40;99.90;;;;;;5012842;28;20064;-71
2021/03/03 06:47:11;;;;;;;40.90;16.90;;;4.60;99.90;;;;;;5017598;28;20022;-70
2021/03/03 06:49:36;;;;;;;35.92;18.15;;;4.70;99.90;;;;;;5014996;28;20101;-72
2021/03/03 06:52:02;;;;;;;30.85;17.17;;;4.80;99.90;;;;;;5020322;28;20037;-71
2021/03/03 06:54:28;;;;;;;25.95;15.45;;;4.90;99.90;;;;;;5021331;28;20042;-69
2021/03/03 06:56:55;;;;;;;31.20;16.27;;;4.80;99.90;;;;;;5016973;28;20032;-70
2021/03/03 06:59:32;;;;;;;38.50;17.63;;;5.00;99.90;;;;;;5015434;28;20050;-69
2021/03/03 07:02:12;;;;;;;39.20;15.98;;;5.10;99.90;;;;;;5016733;28;20022;-71
2021/03/03 07:04:56;;;;;;;43.30;16.85;;;5.20;99.90;;;;;;5017669;28;20080;-71
2021/03/03 07:07:22;;;;;;;33.08;16.88;;;5.30;99.90;;;;;;5015358;28;20504;-70
2021/03/03 07:09:58;;;;;;;35.33;16.75;;;5.20;99.90;;;;;;5014648;28;20022;-70
2021/03/03 07:12:30;;;;;;;29.55;17.33;;;5.30;99.90;;;;;;5015044;28;20092;-70
2021/03/03 07:14:59;;;;;;;32.97;15.10;;;5.30;99.90;;;;;;5018582;28;20029;-70
2021/03/03 07:17:43;;;;;;;30.33;16.27;;;5.40;99.90;;;;;;5018308;28;20033;-70
2021/03/03 07:20:14;;;;;;;26.83;15.23;;;5.40;99.90;;;;;;5018238;28;20077;-70
2021/03/03 07:22:42;;;;;;;20.80;16.38;;;5.50;99.90;;;;;;5018459;28;20097;-70
2021/03/03 07:25:09;;;;;;;38.85;17.13;;;5.50;99.90;;;;;;5019203;28;20160;-70
2021/03/03 07:27:37;;;;;;;31.65;16.55;;;5.40;99.90;;;;;;5018468;28;20405;-71
2021/03/03 07:30:05;;;;;;;30.10;15.77;;;5.30;99.90;;;;;;5017831;28;20041;-71
2021/03/03 07:32:31;;;;;;;27.95;14.82;;;5.70;99.90;;;;;;5017209;28;20029;-71
2021/03/03 07:34:57;;;;;;;37.30;17.02;;;5.70;99.90;;;;;;5017777;28;20029;-69
2021/03/03 07:37:33;;;;;;;30.52;15.43;;;5.80;99.90;;;;;;5017824;28;20041;-70
2021/03/03 07:40:01;;;;;;;32.47;18.63;;;5.90;99.90;;;;;;5020646;28;20018;-71
2021/03/03 07:42:30;;;;;;;34.33;16.00;;;5.80;99.90;;;;;;5018251;28;20036;-70
2021/03/03 07:44:58;;;;;;;25.25;15.38;;;5.70;99.90;;;;;;5018045;28;20030;-70
2021/03/03 07:47:26;;;;;;;21.35;16.52;;;5.70;99.90;;;;;;5018300;28;20030;-72
2021/03/03 07:49:56;;;;;;;28.23;14.77;;;5.80;99.90;;;;;;5018859;28;20030;-73
2021/03/03 07:52:23;;;;;;;33.50;15.85;;;6.10;99.90;;;;;;5017632;28;20061;-70
2021/03/03 07:54:48;;;;;;;23.80;16.27;;;6.40;99.90;;;;;;5018633;28;20026;-71
2021/03/03 07:57:15;;;;;;;23.85;17.85;;;6.40;99.90;;;;;;5019603;28;20028;-70
2021/03/03 07:59:43;;;;;;;25.90;15.52;;;6.40;99.50;;;;;;5017832;28;20021;-71
2021/03/03 08:02:09;;;;;;;29.13;16.58;;;6.20;99.90;;;;;;5016637;28;20034;-71
2021/03/03 08:04:40;;;;;;;23.92;16.27;;;6.30;99.90;;;;;;5016622;28;20045;-72
2021/03/03 08:07:16;;;;;;;27.00;15.40;;;6.30;99.90;;;;;;5015823;28;20103;-71
2021/03/03 08:10:14;;;;;;;30.65;15.50;;;6.40;99.90;;;;;;5015946;28;20033;-71
2021/03/03 08:13:16;;;;;;;23.65;16.67;;;6.80;72.70;;;;;;5013942;28;20045;-70
2021/03/03 08:15:56;;;;;;;29.20;16.30;;;7.00;57.50;;;;;;5014743;28;20125;-70
2021/03/03 08:18:33;;;;;;;31.63;16.08;;;7.10;24.30;;;;;;5022066;28;20022;-70
2021/03/03 08:21:22;;;;;;;30.27;15.77;;;7.10;39.60;;;;;;5031054;28;20026;-71
2021/03/03 08:23:49;;;;;;;27.08;14.48;;;7.20;15.60;;;;;;5022552;28;20108;-69
2021/03/03 08:26:17;;;;;;;21.95;15.20;;;7.20;2.50;;;;;;5020628;28;20045;-71
2021/03/03 08:28:47;;;;;;;26.27;16.42;;;7.40;1.00;;;;;;5020511;28;20025;-72
2021/03/03 08:31:15;;;;;;;29.75;15.88;;;7.20;2.80;;;;;;5018080;28;20033;-71
2021/03/03 08:33:44;;;;;;;34.80;16.38;;;7.00;41.50;;;;;;5017328;28;20097;-71
2021/03/03 08:36:34;;;;;;;26.27;15.02;;;7.20;38.40;;;;;;5017242;28;20482;-71
2021/03/03 08:39:01;;;;;;;25.85;16.25;;;7.40;1.00;;;;;;5014429;28;20037;-70
2021/03/03 08:41:30;;;;;;;29.55;15.30;;;7.20;31.20;;;;;;5020656;28;20025;-71
2021/03/03 08:44:14;;;;;;;29.40;14.75;;;7.60;1.00;;;;;;5025380;28;20030;-70
2021/03/03 08:46:42;;;;;;;27.23;15.45;;;7.80;1.00;;;;;;5033401;28;20033;-69
2021/03/03 08:49:08;;;;;;;23.88;15.05;;;7.90;1.00;;;;;;5030009;28;20024;-70
2021/03/03 08:51:36;;;;;;;23.40;15.45;;;7.90;1.00;;;;;;5025700;28;20053;-70
2021/03/03 08:54:06;;;;;;;27.25;15.65;;;8.00;1.00;;;;;;5022851;28;20061;-70
2021/03/03 08:56:44;;;;;;;21.88;15.63;;;8.00;1.00;;;;;;5021173;28;20128;-71
2021/03/03 08:59:29;;;;;;;23.48;14.77;;;8.10;1.00;;;;;;5024859;28;20018;-71
2021/03/03 09:02:02;;;;;;;23.70;15.30;;;8.20;1.00;;;;;;5029802;28;20559;-70
2021/03/03 09:04:47;;;;;;;25.05;15.23;;;8.20;1.00;;;;;;5030632;28;20022;-70
2021/03/03 09:07:25;;;;;;;29.05;15.38;;;8.30;1.00;;;;;;5028922;28;20402;-71
2021/03/03 09:09:59;;;;;;;29.88;17.30;;;8.20;1.00;;;;;;5028823;28;20037;-72
2021/03/03 09:12:27;;;;;;;32.03;17.25;;;8.30;1.00;;;;;;5019500;28;20025;-70
2021/03/03 09:15:01;;;;;;;27.13;15.77;;;8.30;1.00;;;;;;5026072;28;20034;-71
2021/03/03 09:17:29;;;;;;;29.02;17.90;;;8.40;1.00;;;;;;5034579;28;20040;-70
2021/03/03 09:19:58;;;;;;;31.38;17.10;;;8.60;1.00;;;;;;5024641;28;20053;-71
2021/03/03 09:22:28;;;;;;;29.50;15.80;;;8.60;1.00;;;;;;5018087;28;20030;-70
2021/03/03 09:24:56;;;;;;;24.98;16.98;;;8.60;1.00;;;;;;5021485;28;20022;-71
2021/03/03 09:27:23;;;;;;;24.42;15.63;;;8.50;99.90;;;;;;5018170;28;20040;-70
2021/03/03 09:29:49;;;;;;;31.75;16.83;;;8.70;99.90;;;;;;5020366;28;20030;-70
2021/03/03 09:32:23;;;;;;;23.10;15.98;;;8.70;99.90;;;;;;5020798;28;20022;-70
2021/03/03 09:35:06;;;;;;;29.65;16.40;;;8.60;99.90;;;;;;5022146;28;20026;-71
2021/03/03 09:37:42;;;;;;;31.17;16.88;;;8.60;1.00;;;;;;5018355;28;20022;-71
2021/03/03 09:40:11;;;;;;;31.55;15.90;;;8.80;99.90;;;;;;5017358;28;20597;-70
2021/03/03 09:42:45;;;;;;;33.40;17.27;;;8.90;99.90;;;;;;5019103;28;20022;-70
2021/03/03 09:45:16;;;;;;;32.13;16.55;;;9.10;99.90;;;;;;5019546;28;20026;-71
2021/03/03 09:47:42;;;;;;;37.92;17.23;;;9.20;99.90;;;;;;5018342;28;20088;-70
2021/03/03 09:50:13;;;;;;;30.27;17.38;;;9.10;99.90;;;;;;5018906;28;20041;-70
2021/03/03 09:52:43;;;;;;;35.33;17.25;;;9.10;99.90;;;;;;5018421;28;20113;-72
2021/03/03 09:55:12;;;;;;;26.17;15.80;;;9.30;99.90;;;;;;5018525;28;20034;-70
2021/03/03 09:57:38;;;;;;;26.35;16.58;;;9.40;99.90;;;;;;5019414;28;20025;-71
2021/03/03 10:00:07;;;;;;;26.67;16.25;;;9.20;99.90;;;;;;5019300;28;20026;-71
2021/03/03 10:02:34;;;;;;;22.70;16.52;;;9.20;99.90;;;;;;5018889;28;20022;-70
2021/03/03 10:05:01;;;;;;;26.67;16.27;;;9.40;99.90;;;;;;5019330;28;20052;-70
2021/03/03 10:07:28;;;;;;;31.08;16.92;;;9.20;99.90;;;;;;5025196;28;20026;-69
2021/03/03 10:09:55;;;;;;;23.92;16.17;;;9.40;99.90;;;;;;5021500;28;20075;-70
2021/03/03 10:12:35;;;;;;;24.77;16.48;;;9.50;99.90;;;;;;5019791;28;20026;-70
2021/03/03 10:15:05;;;;;;;27.60;16.90;;;9.50;99.90;;;;;;5025186;28;20030;-69
2021/03/03 10:17:35;;;;;;;24.75;17.13;;;9.60;99.90;;;;;;5026633;28;20096;-70
2021/03/03 10:20:03;;;;;;;30.83;17.00;;;9.50;99.90;;;;;;5021494;28;20053;-69
2021/03/03 10:22:30;;;;;;;25.23;17.73;;;9.60;99.90;;;;;;5022543;28;20033;-72
2021/03/03 10:25:06;;;;;;;26.50;16.17;;;9.60;99.90;;;;;;5021283;28;20033;-69
2021/03/03 10:27:40;;;;;;;26.15;18.00;;;9.70;99.90;;;;;;5036132;23;20132;-68
2021/03/03 10:30:24;;;;;;;29.13;16.77;;;9.90;99.90;;;;;;5014031;28;20025;-69
2021/03/03 10:32:50;;;;;;;30.55;17.48;;;10.10;33.50;;;;;;5014075;28;20022;-70
2021/03/03 10:35:16;;;;;;;26.60;17.88;;;10.20;30.30;;;;;;5014034;28;20133;-68
2021/03/03 10:37:42;;;;;;;29.80;17.02;;;10.20;1.00;;;;;;5013483;28;20030;-69
2021/03/03 10:40:16;;;;;;;25.63;17.85;;;10.10;42.70;;;;;;5013956;28;20095;-68
2021/03/03 10:42:42;;;;;;;30.90;17.77;;;10.20;97.90;;;;;;5012902;28;20486;-70
2021/03/03 10:45:19;;;;;;;24.63;17.05;;;10.30;28.30;;;;;;5011265;28;20025;-69
2021/03/03 10:47:48;;;;;;;22.35;15.85;;;10.60;1.00;;;;;;5013403;28;20152;-69
2021/03/03 10:50:14;;;;;;;32.65;16.08;;;10.70;1.00;;;;;;5010809;28;20398;-69
2021/03/03 10:52:55;;;;;;;33.38;17.33;;;10.70;1.00;;;;;;5011209;28;20080;-67
2021/03/03 10:55:23;;;;;;;25.48;15.55;;;10.90;99.90;;;;;;5012932;28;20501;-69
2021/03/03 10:58:11;;;;;;;28.55;18.00;;;10.90;1.00;;;;;;5012659;28;20030;-69
2021/03/03 11:00:57;;;;;;;27.98;17.10;;;11.20;99.90;;;;;;5013001;28;20049;-69
2021/03/03 11:03:24;;;;;;;26.85;17.55;;;11.10;99.90;;;;;;5012731;28;20018;-69
2021/03/03 11:05:54;;;;;;;27.52;17.05;;;11.20;99.90;;;;;;5012573;28;20109;-68
2021/03/03 11:08:20;;;;;;;32.97;19.27;;;11.30;99.90;;;;;;5012829;28;20022;-69
2021/03/03 11:10:47;;;;;;;30.08;16.65;;;11.40;12.00;;;;;;5012666;28;20028;-68
2021/03/03 11:13:13;;;;;;;24.45;17.30;;;11.40;37.00;;;;;;5012893;28;20034;-68
2021/03/03 11:15:42;;;;;;;22.40;17.00;;;11.40;1.00;;;;;;5010734;28;20030;-68
2021/03/03 11:18:09;;;;;;;28.30;18.58;;;11.60;1.00;;;;;;5012517;28;20022;-68
2021/03/03 11:20:35;;;;;;;29.90;18.05;;;11.70;1.00;;;;;;5012325;28;20101;-70
2021/03/03 11:23:01;;;;;;;28.60;17.52;;;11.50;99.90;;;;;;5010844;28;20032;-68
2021/03/03 11:25:27;;;;;;;25.88;17.00;;;11.60;99.90;;;;;;5012165;28;20494;-69
2021/03/03 11:27:52;;;;;;;33.33;17.45;;;11.80;99.90;;;;;;5012480;28;20453;-68
2021/03/03 11:30:18;;;;;;;27.23;18.40;;;11.80;99.90;;;;;;5020004;28;20030;-69
2021/03/03 11:32:44;;;;;;;26.50;16.85;;;12.00;99.90;;;;;;5015395;28;20486;-69
2021/03/03 11:35:09;;;;;;;25.75;16.85;;;12.10;1.00;;;;;;5013303;28;20065;-68
2021/03/03 11:37:35;;;;;;;36.58;17.90;;;11.90;1.00;;;;;;5012692;28;20026;-69
2021/03/03 11:40:01;;;;;;;24.88;17.92;;;11.90;99.90;;;;;;5011305;28;20029;-68
2021/03/03 11:42:26;;;;;;;28.75;17.48;;;12.10;1.00;;;;;;5012111;28;20123;-68
2021/03/03 11:44:52;;;;;;;25.73;17.70;;;12.00;66.60;;;;;;5011923;28;20048;-70
2021/03/03 11:47:17;;;;;;;29.35;17.50;;;12.20;99.90;;;;;;5012140;28;20096;-69
2021/03/03 11:49:43;;;;;;;25.13;17.80;;;11.90;99.90;;;;;;5012631;28;20033;-69
2021/03/03 11:52:08;;;;;;;31.15;17.40;;;12.00;1.00;;;;;;5012332;28;20442;-68
2021/03/03 11:54:34;;;;;;;28.70;17.50;;;12.00;1.00;;;;;;5012008;28;20041;-70
2021/03/03 11:57:00;;;;;;;31.17;17.70;;;12.00;1.00;;;;;;5014458;28;20049;-67
2021/03/03 11:59:25;;;;;;;28.75;17.38;;;12.50;5.10;;;;;;5014351;28;20026;-70
2021/03/03 12:01:52;;;;;;;32.70;18.33;;;12.60;99.90;;;;;;5013219;28;20026;-68
2021/03/03 12:04:18;;;;;;;27.95;17.10;;;12.60;1.00;;;;;;5015687;28;20045;-70
2021/03/03 12:06:44;;;;;;;29.40;17.17;;;12.70;11.70;;;;;;5017776;28;20033;-69
2021/03/03 12:09:10;;;;;;;27.25;17.88;;;12.20;99.90;;;;;;5017362;28;20090;-69
2021/03/03 12:11:36;;;;;;;29.08;19.27;;;12.30;99.90;;;;;;5018225;28;20155;-70
2021/03/03 12:14:01;;;;;;;23.92;18.17;;;12.50;99.90;;;;;;5019625;28;20080;-69
2021/03/03 12:16:27;;;;;;;22.38;15.73;;;12.70;2.00;;;;;;5018333;28;20516;-68
2021/03/03 12:18:52;;;;;;;23.88;17.48;;;12.70;63.80;;;;;;5023443;28;20018;-68
2021/03/03 12:21:18;;;;;;;23.35;17.80;;;12.80;25.40;;;;;;5023533;28;20029;-69
2021/03/03 12:23:44;;;;;;;27.73;17.98;;;12.60;99.90;;;;;;5020043;28;20413;-70
2021/03/03 12:26:09;;;;;;;32.42;16.73;;;12.60;99.90;;;;;;5018399;28;20414;-69
2021/03/03 12:28:36;;;;;;;33.95;18.05;;;12.90;29.70;;;;;;5018247;28;20042;-68
2021/03/03 12:31:01;;;;;;;29.98;19.77;;;12.80;1.00;;;;;;5017786;28;20030;-69
2021/03/03 12:33:27;;;;;;;30.63;17.40;;;12.80;1.00;;;;;;5020119;28;20026;-70
2021/03/03 12:35:53;;;;;;;24.55;19.02;;;12.70;34.40;;;;;;5019851;28;20022;-69
2021/03/03 12:38:18;;;;;;;41.97;20.52;;;13.00;1.00;;;;;;5030331;28;20025;-68
2021/03/03 12:40:44;;;;;;;35.83;18.20;;;13.20;1.00;;;;;;5020501;28;20022;-68
2021/03/03 12:43:10;;;;;;;32.22;19.95;;;13.20;1.00;;;;;;5021959;28;20096;-69